createdAt,value
2019-02-26T00:00:32.538Z,13.1
2019-02-26T00:01:09.589Z,13
2019-02-26T00:02:09.619Z,13
2019-02-26T00:03:10.220Z,13
2019-02-26T00:03:43.344Z,13
2019-02-26T00:04:42.570Z,13
2019-02-26T00:05:37.864Z,13
2019-02-26T00:06:11.784Z,12.9
2019-02-26T00:07:07.591Z,12.9
2019-02-26T00:08:07.696Z,12.9
2019-02-26T00:08:41.834Z,12.9
2019-02-26T00:09:42.419Z,12.9
2019-02-26T00:10:39.730Z,12.9
2019-02-26T00:11:17.731Z,12.9
2019-02-26T00:12:00.834Z,12.9
2019-02-26T00:12:50.898Z,12.9
2019-02-26T00:13:45.315Z,12.9
2019-02-26T00:14:37.678Z,12.9
2019-02-26T00:15:21.173Z,12.9
2019-02-26T00:16:26.977Z,12.8
2019-02-26T00:17:00.351Z,12.8
2019-02-26T00:17:58.789Z,12.8
2019-02-26T00:18:43.146Z,12.8
2019-02-26T00:19:30.590Z,12.8
2019-02-26T00:20:25.600Z,12.8
2019-02-26T00:21:13.290Z,12.8
2019-02-26T00:22:02.837Z,12.8
2019-02-26T00:22:55.310Z,12.8
2019-02-26T00:23:53.607Z,12.8
2019-02-26T00:24:49.667Z,12.8
2019-02-26T00:25:28.361Z,12.7
2019-02-26T00:26:25.288Z,12.8
2019-02-26T00:27:13.263Z,12.7
2019-02-26T00:28:02.898Z,12.7
2019-02-26T00:28:52.697Z,12.7
2019-02-26T00:29:39.088Z,12.6
2019-02-26T00:30:26.888Z,12.6
2019-02-26T00:31:14.405Z,12.6
2019-02-26T00:32:09.263Z,12.6
2019-02-26T00:32:58.199Z,12.6
2019-02-26T00:33:41.870Z,12.6
2019-02-26T00:34:43.345Z,12.6
2019-02-26T00:35:34.386Z,12.5
2019-02-26T00:36:21.040Z,12.6
2019-02-26T00:37:13.017Z,12.5
2019-02-26T00:38:03.005Z,12.5
2019-02-26T00:38:52.085Z,12.4
2019-02-26T00:39:39.391Z,12.4
2019-02-26T00:40:27.680Z,12.4
2019-02-26T00:41:14.932Z,12.4
2019-02-26T00:42:11.613Z,12.4
2019-02-26T00:43:11.511Z,12.4
2019-02-26T00:43:44.486Z,12.4
2019-02-26T00:44:44.159Z,12.4
2019-02-26T00:45:42.751Z,12.4
2019-02-26T00:46:17.502Z,12.4
2019-02-26T00:47:15.657Z,12.4
2019-02-26T00:47:55.179Z,12.3
2019-02-26T00:48:49.939Z,12.3
2019-02-26T00:49:37.072Z,12.3
2019-02-26T00:50:24.709Z,12.3
2019-02-26T00:51:13.241Z,12.3
2019-02-26T00:52:11.097Z,12.3
2019-02-26T00:53:05.659Z,12.3
2019-02-26T00:53:43.108Z,12.3
2019-02-26T00:54:44.034Z,12.3
2019-02-26T00:55:41.121Z,12.3
2019-02-26T00:56:18.459Z,12.3
2019-02-26T00:57:20.359Z,12.3
2019-02-26T00:57:59.152Z,12.3
2019-02-26T00:58:57.031Z,12.3
2019-02-26T00:59:41.162Z,12.3
2019-02-26T01:00:35.315Z,12.3
2019-02-26T01:01:29.171Z,12.3
2019-02-26T01:02:07.761Z,12.3
2019-02-26T01:02:53.264Z,12.3
2019-02-26T01:03:55.738Z,12.3
2019-02-26T01:04:34.466Z,12.3
2019-02-26T01:05:23.723Z,12.2
2019-02-26T01:06:17.136Z,12.3
2019-02-26T01:07:13.966Z,12.3
2019-02-26T01:08:01.763Z,12.2
2019-02-26T01:08:53.530Z,12.2
2019-02-26T01:09:40.382Z,12.2
2019-02-26T01:10:30.571Z,12.2
2019-02-26T01:11:15.133Z,12.1
2019-02-26T01:12:03.411Z,12.1
2019-02-26T01:12:53.960Z,12.1
2019-02-26T01:13:44.337Z,12.1
2019-02-26T01:14:33.868Z,12.1
2019-02-26T01:15:24.138Z,12.1
2019-02-26T01:16:13.933Z,12.1
2019-02-26T01:17:05.042Z,12.1
2019-02-26T01:18:05.573Z,12.1
2019-02-26T01:18:56.133Z,12.1
2019-02-26T01:19:45.720Z,12.1
2019-02-26T01:20:37.772Z,12.1
2019-02-26T01:21:14.804Z,12.1
2019-02-26T01:22:05.122Z,12
2019-02-26T01:22:54.675Z,12.1
2019-02-26T01:23:44.693Z,12.1
2019-02-26T01:24:39.735Z,12
2019-02-26T01:25:30.255Z,12
2019-02-26T01:26:18.905Z,12
2019-02-26T01:27:05.469Z,12
2019-02-26T01:28:07.089Z,11.9
2019-02-26T01:29:06.427Z,11.9
2019-02-26T01:29:40.035Z,11.9
2019-02-26T01:30:43.007Z,11.9
2019-02-26T01:31:15.507Z,11.9
2019-02-26T01:32:25.777Z,11.9
2019-02-26T01:33:07.319Z,11.9
2019-02-26T01:33:57.367Z,11.9
2019-02-26T01:34:34.829Z,11.9
2019-02-26T01:35:38.332Z,11.9
2019-02-26T01:36:28.098Z,11.9
2019-02-26T01:37:17.734Z,11.9
2019-02-26T01:38:06.625Z,11.9
2019-02-26T01:38:59.432Z,11.9
2019-02-26T01:39:54.932Z,11.9
2019-02-26T01:40:32.681Z,11.9
2019-02-26T01:41:32.548Z,11.9
2019-02-26T01:42:06.949Z,11.9
2019-02-26T01:43:12.039Z,11.9
2019-02-26T01:43:46.336Z,11.9
2019-02-26T01:44:50.377Z,11.9
2019-02-26T01:45:38.484Z,11.9
2019-02-26T01:46:26.036Z,11.9
2019-02-26T01:47:12.511Z,11.9
2019-02-26T01:48:00.153Z,11.9
2019-02-26T01:48:48.401Z,11.9
2019-02-26T01:49:37.511Z,11.9
2019-02-26T01:50:37.935Z,11.9
2019-02-26T01:51:28.459Z,11.9
2019-02-26T01:52:18.891Z,11.9
2019-02-26T01:53:08.103Z,11.9
2019-02-26T01:54:00.018Z,11.8
2019-02-26T01:54:46.541Z,11.8
2019-02-26T01:55:34.773Z,11.8
2019-02-26T01:56:21.934Z,11.8
2019-02-26T01:57:11.946Z,11.8
2019-02-26T01:58:02.203Z,11.8
2019-02-26T01:59:03.794Z,11.8
2019-02-26T01:59:41.941Z,11.8
2019-02-26T02:00:32.343Z,11.8
2019-02-26T02:01:32.963Z,11.8
2019-02-26T02:02:17.260Z,11.8
2019-02-26T02:02:58.955Z,11.8
2019-02-26T02:04:00.338Z,11.8
2019-02-26T02:04:49.895Z,11.8
2019-02-26T02:05:38.120Z,11.8
2019-02-26T02:06:25.846Z,11.8
2019-02-26T02:07:13.583Z,11.7
2019-02-26T02:08:03.388Z,11.7
2019-02-26T02:09:01.428Z,11.7
2019-02-26T02:09:38.719Z,11.7
2019-02-26T02:10:28.375Z,11.7
2019-02-26T02:11:18.423Z,11.7
2019-02-26T02:12:18.326Z,11.7
2019-02-26T02:13:17.207Z,11.7
2019-02-26T02:13:51.630Z,11.7
2019-02-26T02:14:39.475Z,11.7
2019-02-26T02:15:31.363Z,11.7
2019-02-26T02:16:18.215Z,11.7
2019-02-26T02:17:20.938Z,11.7
2019-02-26T02:18:09.882Z,11.6
2019-02-26T02:19:05.627Z,11.6
2019-02-26T02:19:41.531Z,11.6
2019-02-26T02:20:30.252Z,11.6
2019-02-26T02:21:19.077Z,11.6
2019-02-26T02:22:16.811Z,11.6
2019-02-26T02:23:10.922Z,11.6
2019-02-26T02:23:59.044Z,11.6
2019-02-26T02:24:58.565Z,11.6
2019-02-26T02:25:48.220Z,11.6
2019-02-26T02:26:23.407Z,11.6
2019-02-26T02:27:09.776Z,11.6
2019-02-26T02:28:11.017Z,11.6
2019-02-26T02:28:50.719Z,11.6
2019-02-26T02:29:55.292Z,11.6
2019-02-26T02:30:45.945Z,11.6
2019-02-26T02:31:24.409Z,11.6
2019-02-26T02:32:15.718Z,11.6
2019-02-26T02:33:10.243Z,11.6
2019-02-26T02:33:49.962Z,11.6
2019-02-26T02:34:50.041Z,11.6
2019-02-26T02:35:29.831Z,11.6
2019-02-26T02:36:33.559Z,11.6
2019-02-26T02:37:10.539Z,11.6
2019-02-26T02:38:12.449Z,11.6
2019-02-26T02:38:50.349Z,11.6
2019-02-26T02:39:40.086Z,11.6
2019-02-26T02:40:31.115Z,11.6
2019-02-26T02:41:20.534Z,11.6
2019-02-26T02:42:24.358Z,11.6
2019-02-26T02:43:24.337Z,11.6
2019-02-26T02:43:51.209Z,11.6
2019-02-26T02:44:54.807Z,11.6
2019-02-26T02:45:29.718Z,11.6
2019-02-26T02:46:20.602Z,11.6
2019-02-26T02:47:19.222Z,11.6
2019-02-26T02:48:20.233Z,11.6
2019-02-26T02:48:51.362Z,11.6
2019-02-26T02:49:51.866Z,11.6
2019-02-26T02:50:31.953Z,11.6
2019-02-26T02:51:21.541Z,11.6
2019-02-26T02:52:19.021Z,11.6
2019-02-26T02:53:11.423Z,11.6
2019-02-26T02:54:05.694Z,11.6
2019-02-26T02:54:55.140Z,11.6
2019-02-26T02:55:31.795Z,11.6
2019-02-26T02:56:25.575Z,11.6
2019-02-26T02:57:17.575Z,11.5
2019-02-26T02:58:07.538Z,11.5
2019-02-26T02:58:59.281Z,11.5
2019-02-26T02:59:49.395Z,11.5
2019-02-26T03:00:41.821Z,11.5
2019-02-26T03:01:35.547Z,11.5
2019-02-26T03:02:26.893Z,11.5
2019-02-26T03:03:05.640Z,11.5
2019-02-26T03:04:07.755Z,11.5
2019-02-26T03:04:42.276Z,11.5
2019-02-26T03:08:04.917Z,11.4
2019-02-26T03:09:00.550Z,11.4
2019-02-26T03:09:52.828Z,11.4
2019-02-26T03:10:51.052Z,11.4
2019-02-26T03:11:19.424Z,11.4
2019-02-26T03:12:09.786Z,11.4
2019-02-26T03:13:10.207Z,11.4
2019-02-26T03:14:00.874Z,11.4
2019-02-26T03:14:51.865Z,11.4
2019-02-26T03:15:43.306Z,11.4
2019-02-26T03:16:34.054Z,11.4
2019-02-26T03:17:25.339Z,11.4
2019-02-26T03:18:03.483Z,11.4
2019-02-26T03:18:50.314Z,11.4
2019-02-26T03:19:50.647Z,11.4
2019-02-26T03:20:46.984Z,11.4
2019-02-26T03:21:35.617Z,11.4
2019-02-26T03:22:25.719Z,11.4
2019-02-26T03:23:54.447Z,11.4
2019-02-26T03:24:44.243Z,11.4
2019-02-26T03:25:37.189Z,11.4
2019-02-26T03:26:34.548Z,11.4
2019-02-26T03:27:11.338Z,11.4
2019-02-26T03:28:01.672Z,11.4
2019-02-26T03:29:01.203Z,11.4
2019-02-26T03:29:41.812Z,11.4
2019-02-26T03:30:52.197Z,11.4
2019-02-26T03:31:34.533Z,11.4
2019-02-26T03:32:12.335Z,11.5
2019-02-26T03:33:12.922Z,11.5
2019-02-26T03:34:08.590Z,11.5
2019-02-26T03:34:42.113Z,11.6
2019-02-26T03:35:32.582Z,11.6
2019-02-26T03:36:26.937Z,11.6
2019-02-26T03:37:18.405Z,11.6
2019-02-26T03:38:11.209Z,11.6
2019-02-26T03:39:09.794Z,11.7
2019-02-26T03:39:41.883Z,11.8
2019-02-26T03:40:43.435Z,11.8
2019-02-26T03:41:37.350Z,11.8
2019-02-26T03:42:25.323Z,11.9
2019-02-26T03:43:17.160Z,11.9
2019-02-26T03:43:54.288Z,11.9
2019-02-26T03:44:47.114Z,11.9
2019-02-26T03:45:33.841Z,11.9
2019-02-26T03:46:21.924Z,12
2019-02-26T03:47:11.719Z,12
2019-02-26T03:48:06.126Z,12.1
2019-02-26T03:48:52.145Z,12.1
2019-02-26T03:49:46.963Z,12.1
2019-02-26T03:50:34.757Z,12.1
2019-02-26T03:51:26.307Z,12.1
2019-02-26T03:52:17.455Z,12.2
2019-02-26T03:53:02.388Z,12.2
2019-02-26T03:53:52.635Z,12.3
2019-02-26T03:54:57.530Z,12.3
2019-02-26T03:55:46.625Z,12.4
2019-02-26T03:56:28.894Z,12.3
2019-02-26T03:57:29.359Z,12.4
2019-02-26T03:58:10.144Z,12.4
2019-02-26T03:59:15.765Z,12.4
2019-02-26T03:59:43.248Z,12.4
2019-02-26T04:00:49.670Z,12.5
2019-02-26T04:01:30.387Z,12.5
2019-02-26T04:02:29.392Z,12.5
2019-02-26T04:03:18.422Z,12.5
2019-02-26T04:03:51.872Z,12.6
2019-02-26T04:04:57.059Z,12.6
2019-02-26T04:05:33.931Z,12.6
2019-02-26T04:06:23.412Z,12.6
2019-02-26T04:07:18.148Z,12.6
2019-02-26T04:08:12.222Z,12.6
2019-02-26T04:09:03.861Z,12.7
2019-02-26T04:10:05.072Z,12.8
2019-02-26T04:10:34.568Z,12.8
2019-02-26T04:11:34.966Z,12.8
2019-02-26T04:12:27.534Z,12.8
2019-02-26T04:13:07.080Z,12.8
2019-02-26T04:14:04.138Z,12.8
2019-02-26T04:14:44.924Z,12.8
2019-02-26T04:15:45.072Z,12.8
2019-02-26T04:16:24.086Z,12.9
2019-02-26T04:17:17.351Z,12.9
2019-02-26T04:18:04.792Z,12.9
2019-02-26T04:18:59.637Z,12.9
2019-02-26T04:19:49.476Z,12.9
2019-02-26T04:20:37.114Z,12.9
2019-02-26T04:21:29.214Z,12.9
2019-02-26T04:22:30.820Z,12.9
2019-02-26T04:23:05.427Z,13
2019-02-26T04:23:54.488Z,13
2019-02-26T04:24:45.521Z,13.1
2019-02-26T04:25:43.641Z,13.1
2019-02-26T04:26:41.276Z,13.1
2019-02-26T04:27:15.759Z,13.1
2019-02-26T04:28:17.118Z,13.1
2019-02-26T04:28:58.761Z,13.1
2019-02-26T04:29:57.136Z,13.1
2019-02-26T04:30:57.521Z,13.1
2019-02-26T04:31:25.775Z,13.1
2019-02-26T04:32:29.568Z,13.1
2019-02-26T04:33:18.982Z,13.2
2019-02-26T04:34:11.785Z,13.2
2019-02-26T04:34:45.926Z,13.2
2019-02-26T04:35:36.293Z,13.2
2019-02-26T04:36:31.205Z,13.2
2019-02-26T04:37:20.450Z,13.3
2019-02-26T04:38:14.292Z,13.2
2019-02-26T04:39:03.261Z,13.2
2019-02-26T04:39:55.694Z,13.3
2019-02-26T04:40:48.275Z,13.3
2019-02-26T04:41:26.052Z,13.3
2019-02-26T04:42:27.117Z,13.3
2019-02-26T04:43:19.980Z,13.3
2019-02-26T04:44:11.816Z,13.3
2019-02-26T04:45:10.243Z,13.3
2019-02-26T04:45:36.950Z,13.4
2019-02-26T04:46:41.757Z,13.4
2019-02-26T04:47:24.181Z,13.4
2019-02-26T04:48:09.067Z,13.4
2019-02-26T04:48:56.347Z,13.4
2019-02-26T04:49:51.367Z,13.4
2019-02-26T04:50:51.372Z,13.4
2019-02-26T04:51:27.682Z,13.4
2019-02-26T04:52:26.080Z,13.4
2019-02-26T04:53:18.212Z,13.4
2019-02-26T04:54:08.666Z,13.4
2019-02-26T04:54:48.354Z,13.4
2019-02-26T04:55:51.796Z,13.4
2019-02-26T04:56:31.214Z,13.5
2019-02-26T04:57:17.269Z,13.5
2019-02-26T04:58:14.759Z,13.6
2019-02-26T04:58:57.689Z,13.5
2019-02-26T04:59:51.885Z,13.5
2019-02-26T05:00:46.717Z,13.5
2019-02-26T05:01:27.556Z,13.5
2019-02-26T05:02:17.616Z,13.5
2019-02-26T05:03:23.719Z,13.5
2019-02-26T05:03:57.434Z,13.5
2019-02-26T05:04:50.748Z,13.6
2019-02-26T05:05:45.146Z,13.6
2019-02-26T05:06:27.926Z,13.6
2019-02-26T05:07:27.222Z,13.6
2019-02-26T05:08:22.287Z,13.6
2019-02-26T05:09:13.916Z,13.6
2019-02-26T05:10:03.350Z,13.6
2019-02-26T05:10:42.290Z,13.6
2019-02-26T05:11:48.165Z,13.7
2019-02-26T05:12:18.644Z,13.6
2019-02-26T05:13:16.938Z,13.6
2019-02-26T05:13:58.709Z,13.6
2019-02-26T05:14:48.758Z,13.6
2019-02-26T05:15:44.823Z,13.6
2019-02-26T05:16:45.672Z,13.7
2019-02-26T05:17:33.437Z,13.7
2019-02-26T05:18:08.776Z,13.7
2019-02-26T05:19:05.935Z,13.7
2019-02-26T05:19:59.313Z,13.7
2019-02-26T05:20:55.361Z,13.7
2019-02-26T05:21:42.788Z,13.7
2019-02-26T05:22:33.344Z,13.7
2019-02-26T05:23:13.398Z,13.7
2019-02-26T05:24:09.302Z,13.7
2019-02-26T05:25:00.757Z,13.8
2019-02-26T05:25:51.582Z,13.9
2019-02-26T05:26:32.625Z,14
2019-02-26T05:27:32.554Z,14.1
2019-02-26T05:28:23.500Z,14.1
2019-02-26T05:29:00.058Z,14.1
2019-02-26T05:30:02.261Z,14.1
2019-02-26T05:30:53.229Z,14.1
2019-02-26T05:31:43.769Z,14.1
2019-02-26T05:32:24.964Z,14.1
2019-02-26T05:33:14.337Z,14.1
2019-02-26T05:34:08.128Z,14.1
2019-02-26T05:34:58.052Z,14.1
2019-02-26T05:35:54.386Z,14.1
2019-02-26T05:36:48.843Z,14.1
2019-02-26T05:38:17.746Z,14
2019-02-26T05:39:09.061Z,13.9
2019-02-26T05:40:01.941Z,14
2019-02-26T05:41:00.995Z,14.1
2019-02-26T05:41:29.910Z,14.1
2019-02-26T05:42:20.378Z,14.1
2019-02-26T05:43:14.262Z,14.1
2019-02-26T05:44:17.223Z,14.1
2019-02-26T05:45:05.939Z,14.1
2019-02-26T05:45:43.705Z,14.1
2019-02-26T05:46:37.038Z,14.1
2019-02-26T05:47:33.268Z,14.1
2019-02-26T05:48:15.167Z,14.1
2019-02-26T05:49:02.887Z,14.1
2019-02-26T05:49:54.510Z,14.1
2019-02-26T05:50:52.706Z,14.1
2019-02-26T05:51:44.920Z,14.1
2019-02-26T05:52:36.416Z,14.1
2019-02-26T05:53:21.102Z,14.1
2019-02-26T05:54:26.240Z,14.1
2019-02-26T05:54:52.929Z,14.1
2019-02-26T05:55:56.712Z,14.1
2019-02-26T05:56:31.365Z,14.1
2019-02-26T05:57:41.245Z,14.1
2019-02-26T05:58:26.444Z,14.1
2019-02-26T05:59:24.191Z,14.1
2019-02-26T05:59:52.102Z,14.1
2019-02-26T06:00:42.187Z,14.1
2019-02-26T06:01:36.209Z,14.1
2019-02-26T06:02:32.403Z,14.1
2019-02-26T06:03:25.865Z,14.1
2019-02-26T06:06:08.211Z,14.2
2019-02-26T06:07:06.136Z,14.2
2019-02-26T06:07:46.748Z,14.2
2019-02-26T06:08:48.169Z,14.2
2019-02-26T06:09:35.288Z,14.1
2019-02-26T06:10:09.925Z,14.2
2019-02-26T06:11:00.255Z,14.2
2019-02-26T06:11:58.456Z,14.2
2019-02-26T06:12:54.023Z,14.1
2019-02-26T06:13:45.568Z,14.2
2019-02-26T06:14:21.792Z,14.2
2019-02-26T06:15:16.036Z,14.2
2019-02-26T06:16:14.469Z,14.2
2019-02-26T06:17:02.429Z,14.2
2019-02-26T06:18:01.088Z,14.1
2019-02-26T06:18:30.288Z,14.2
2019-02-26T06:19:25.538Z,14.2
2019-02-26T06:20:18.643Z,14.2
2019-02-26T06:21:08.804Z,14.2
2019-02-26T06:22:03.398Z,14.2
2019-02-26T06:22:43.811Z,14.3
2019-02-26T06:23:48.528Z,14.2
2019-02-26T06:24:40.448Z,14.3
2019-02-26T06:25:32.692Z,14.3
2019-02-26T06:26:35.628Z,14.3
2019-02-26T06:26:54.458Z,14.3
2019-02-26T06:27:44.901Z,14.3
2019-02-26T06:28:54.704Z,14.3
2019-02-26T06:29:43.190Z,14.3
2019-02-26T06:30:20.920Z,14.3
2019-02-26T06:31:05.323Z,14.3
2019-02-26T06:31:57.885Z,14.3
2019-02-26T06:32:53.108Z,14.3
2019-02-26T06:33:56.533Z,14.3
2019-02-26T06:34:30.253Z,14.3
2019-02-26T06:35:26.483Z,14.3
2019-02-26T06:36:13.395Z,14.3
2019-02-26T06:37:01.232Z,14.3
2019-02-26T06:37:47.741Z,14.3
2019-02-26T06:38:41.905Z,14.3
2019-02-26T06:39:42.265Z,14.3
2019-02-26T06:40:15.848Z,14.3
2019-02-26T06:41:05.442Z,14.3
2019-02-26T06:41:59.162Z,14.3
2019-02-26T06:42:48.629Z,14.3
2019-02-26T06:43:59.307Z,14.3
2019-02-26T06:44:26.157Z,14.4
2019-02-26T06:45:24.389Z,14.4
2019-02-26T06:46:19.978Z,14.3
2019-02-26T06:46:55.583Z,14.4
2019-02-26T06:47:58.577Z,14.3
2019-02-26T06:48:40.195Z,14.3
2019-02-26T06:49:36.311Z,14.4
2019-02-26T06:50:26.144Z,14.4
2019-02-26T06:51:14.868Z,14.4
2019-02-26T06:52:01.710Z,14.4
2019-02-26T06:52:57.203Z,14.4
2019-02-26T06:53:36.518Z,14.4
2019-02-26T06:54:38.869Z,14.4
2019-02-26T06:55:17.204Z,14.4
2019-02-26T06:56:09.129Z,14.5
2019-02-26T06:57:01.528Z,16.7
2019-02-26T06:58:01.852Z,19.3
2019-02-26T06:58:48.914Z,20.2
2019-02-26T06:59:38.339Z,20.4
2019-02-26T07:00:30.036Z,20.6
2019-02-26T07:01:14.314Z,20.8
2019-02-26T07:02:00.531Z,20.7
2019-02-26T07:02:51.984Z,20.6
2019-02-26T07:03:41.471Z,20.6
2019-02-26T07:06:06.338Z,20.3
2019-02-26T07:06:48.871Z,20.3
2019-02-26T07:07:40.226Z,20.1
2019-02-26T07:08:38.703Z,20.1
2019-02-26T07:09:28.783Z,19.9
2019-02-26T07:10:13.740Z,19.6
2019-02-26T07:11:00.503Z,19.3
2019-02-26T07:11:50.463Z,19.2
2019-02-26T07:12:53.041Z,19
2019-02-26T07:13:30.112Z,18.8
2019-02-26T07:14:22.311Z,18.8
2019-02-26T07:15:15.038Z,18.3
2019-02-26T07:16:04.531Z,17.9
2019-02-26T07:16:50.030Z,17.9
2019-02-26T07:17:52.884Z,17.9
2019-02-26T07:18:30.933Z,17.9
2019-02-26T07:19:28.257Z,17.8
2019-02-26T07:20:12.228Z,17.8
2019-02-26T07:21:08.073Z,17.8
2019-02-26T07:21:59.885Z,17.7
2019-02-26T07:22:53.827Z,17.6
2019-02-26T07:23:43.939Z,17.5
2019-02-26T07:24:33.303Z,17.4
2019-02-26T07:25:23.975Z,17.3
2019-02-26T07:26:01.715Z,17.2
2019-02-26T07:26:57.057Z,17.1
2019-02-26T07:27:46.573Z,17.1
2019-02-26T07:29:25.822Z,16.9
2019-02-26T07:30:12.047Z,16.9
2019-02-26T07:31:13.170Z,16.9
2019-02-26T07:32:03.315Z,16.9
2019-02-26T07:32:54.225Z,16.9
2019-02-26T07:33:44.203Z,16.8
2019-02-26T07:34:33.707Z,16.8
2019-02-26T07:35:24.222Z,16.7
2019-02-26T07:36:11.979Z,16.6
2019-02-26T07:37:00.079Z,16.6
2019-02-26T07:37:48.349Z,16.4
2019-02-26T07:38:59.084Z,16.4
2019-02-26T07:39:30.849Z,16.3
2019-02-26T07:40:27.761Z,16.4
2019-02-26T07:41:13.342Z,17.1
2019-02-26T07:42:02.097Z,17.5
2019-02-26T07:42:56.174Z,18
2019-02-26T07:43:32.062Z,18.6
2019-02-26T07:44:35.997Z,19
2019-02-26T07:45:38.017Z,19.1
2019-02-26T07:46:03.069Z,18.8
2019-02-26T07:46:53.805Z,18.6
2019-02-26T07:47:58.362Z,18.4
2019-02-26T07:48:41.364Z,18.2
2019-02-26T07:49:24.847Z,18.1
2019-02-26T07:50:24.527Z,18
2019-02-26T07:51:02.893Z,17.9
2019-02-26T07:51:52.875Z,17.8
2019-02-26T07:52:43.184Z,17.7
2019-02-26T07:53:33.289Z,17.6
2019-02-26T07:54:23.303Z,17.5
2019-02-26T07:55:24.153Z,17.5
2019-02-26T07:56:15.209Z,17.4
2019-02-26T07:57:06.161Z,17.4
2019-02-26T07:57:56.383Z,17.3
2019-02-26T07:58:46.186Z,17.1
2019-02-26T07:59:53.124Z,17.1
2019-02-26T08:00:13.456Z,16.9
2019-02-26T08:01:03.669Z,16.9
2019-02-26T08:01:58.376Z,16.8
2019-02-26T08:02:46.168Z,16.8
2019-02-26T08:03:37.876Z,16.7
2019-02-26T08:04:26.386Z,16.6
2019-02-26T08:05:16.124Z,16.6
2019-02-26T08:06:18.694Z,17.3
2019-02-26T08:07:06.273Z,17.9
2019-02-26T08:07:57.100Z,18.5
2019-02-26T08:08:34.318Z,18.9
2019-02-26T08:09:31.162Z,19.3
2019-02-26T08:10:26.653Z,19
2019-02-26T08:11:04.198Z,18.8
2019-02-26T08:11:57.015Z,18.6
2019-02-26T08:12:50.700Z,18.4
2019-02-26T08:13:44.162Z,18.2
2019-02-26T08:14:32.604Z,18
2019-02-26T08:15:23.067Z,17.9
2019-02-26T08:16:13.002Z,17.8
2019-02-26T08:17:12.788Z,17.7
2019-02-26T08:18:06.352Z,17.6
2019-02-26T08:18:34.970Z,17.6
2019-02-26T08:19:30.795Z,17.6
2019-02-26T08:20:22.360Z,17.4
2019-02-26T08:21:13.007Z,17.3
2019-02-26T08:22:04.626Z,17.3
2019-02-26T08:22:44.992Z,17.1
2019-02-26T08:23:35.395Z,17.1
2019-02-26T08:25:15.695Z,16.9
2019-02-26T08:26:10.739Z,16.8
2019-02-26T08:26:58.331Z,16.7
2019-02-26T08:27:46.892Z,16.6
2019-02-26T08:28:43.998Z,16.9
2019-02-26T08:29:38.391Z,17.6
2019-02-26T08:30:29.782Z,18.2
2019-02-26T08:32:08.616Z,19.2
2019-02-26T08:33:09.685Z,19.3
2019-02-26T08:33:36.117Z,19
2019-02-26T08:34:26.294Z,18.9
2019-02-26T08:35:20.754Z,18.6
2019-02-26T08:36:06.141Z,18.4
2019-02-26T08:36:56.146Z,18.3
2019-02-26T08:37:46.291Z,18.1
2019-02-26T08:38:39.104Z,18.1
2019-02-26T08:39:25.847Z,17.9
2019-02-26T08:40:19.053Z,17.9
2019-02-26T08:41:06.501Z,17.8
2019-02-26T08:41:56.246Z,17.6
2019-02-26T08:42:46.629Z,17.6
2019-02-26T08:43:36.714Z,17.5
2019-02-26T08:44:26.102Z,17.4
2019-02-26T08:45:32.985Z,17.3
2019-02-26T08:46:16.500Z,17.1
2019-02-26T08:46:58.248Z,17.1
2019-02-26T08:48:38.947Z,16.9
2019-02-26T08:49:30.268Z,16.8
2019-02-26T08:50:22.768Z,16.7
2019-02-26T08:51:27.853Z,16.6
2019-02-26T08:51:57.501Z,17.1
2019-02-26T08:53:01.424Z,17.6
2019-02-26T08:53:39.596Z,18.4
2019-02-26T08:54:42.155Z,18.8
2019-02-26T08:55:31.330Z,19.3
2019-02-26T08:56:13.930Z,19.3
2019-02-26T08:56:57.823Z,19
2019-02-26T08:57:51.055Z,18.8
2019-02-26T08:58:37.163Z,18.6
2019-02-26T08:59:28.344Z,18.4
2019-02-26T09:00:17.825Z,18.3
2019-02-26T09:01:07.530Z,18.1
2019-02-26T09:01:57.560Z,18
2019-02-26T09:03:03.482Z,17.9
2019-02-26T09:04:00.671Z,17.8
2019-02-26T09:04:32.328Z,17.6
2019-02-26T09:05:20.770Z,17.6
2019-02-26T09:06:23.785Z,17.5
2019-02-26T09:07:09.358Z,17.4
2019-02-26T09:07:57.553Z,17.3
2019-02-26T09:08:49.865Z,17.2
2019-02-26T09:09:40.165Z,17.1
2019-02-26T09:11:20.582Z,16.9
2019-02-26T09:12:09.738Z,16.9
2019-02-26T09:12:59.758Z,16.8
2019-02-26T09:13:51.599Z,17.1
2019-02-26T09:14:40.285Z,17.8
2019-02-26T09:15:21.180Z,18.5
2019-02-26T09:16:15.294Z,18.9
2019-02-26T09:17:11.459Z,19.4
2019-02-26T09:17:51.035Z,19.5
2019-02-26T09:18:48.457Z,19.3
2019-02-26T09:19:43.697Z,18.9
2019-02-26T09:21:24.392Z,18.6
2019-02-26T09:22:03.107Z,18.4
2019-02-26T09:23:08.046Z,18.3
2019-02-26T09:23:41.217Z,18.1
2019-02-26T09:24:29.154Z,18.1
2019-02-26T09:25:28.648Z,17.9
2019-02-26T09:26:15.196Z,17.8
2019-02-26T09:27:11.773Z,17.7
2019-02-26T09:27:51.706Z,17.6
2019-02-26T09:28:40.766Z,17.5
2019-02-26T09:29:34.055Z,17.4
2019-02-26T09:30:24.416Z,17.3
2019-02-26T09:31:20.928Z,17.2
2019-02-26T09:31:59.636Z,17.1
2019-02-26T09:32:55.449Z,17.1
2019-02-26T09:34:46.003Z,16.9
2019-02-26T09:35:37.293Z,17.1
2019-02-26T09:36:30.908Z,17.7
2019-02-26T09:37:14.538Z,18.4
2019-02-26T09:38:07.485Z,18.8
2019-02-26T09:38:52.443Z,19.3
2019-02-26T09:39:42.141Z,19.6
2019-02-26T09:40:38.663Z,19.3
2019-02-26T09:41:21.279Z,18.9
2019-02-26T09:42:12.780Z,18.8
2019-02-26T09:43:08.884Z,18.6
2019-02-26T09:43:52.860Z,18.4
2019-02-26T09:44:42.903Z,18.3
2019-02-26T09:45:35.451Z,18.2
2019-02-26T09:46:26.095Z,18.1
2019-02-26T09:47:13.013Z,17.9
2019-02-26T09:48:06.267Z,17.8
2019-02-26T09:48:53.140Z,17.7
2019-02-26T09:49:42.348Z,17.6
2019-02-26T09:50:30.400Z,17.5
2019-02-26T09:51:22.850Z,17.4
2019-02-26T09:52:13.437Z,17.4
2019-02-26T09:53:04.867Z,17.3
2019-02-26T09:53:41.138Z,17.3
2019-02-26T09:54:31.845Z,17.2
2019-02-26T09:55:21.760Z,17.1
2019-02-26T09:57:50.657Z,17.4
2019-02-26T09:58:55.387Z,18.1
2019-02-26T09:59:43.800Z,18.8
2019-02-26T10:00:36.335Z,19.3
2019-02-26T10:01:22.922Z,19.7
2019-02-26T10:02:12.819Z,19.4
2019-02-26T10:02:59.492Z,19.1
2019-02-26T10:03:49.318Z,18.9
2019-02-26T10:07:01.595Z,18.4
2019-02-26T10:07:51.099Z,18.1
2019-02-26T10:08:38.515Z,18.1
2019-02-26T10:09:29.414Z,18
2019-02-26T10:10:22.006Z,17.8
2019-02-26T10:11:12.914Z,17.8
2019-02-26T10:12:02.607Z,17.7
2019-02-26T10:12:59.253Z,17.6
2019-02-26T10:13:52.268Z,17.4
2019-02-26T10:14:42.259Z,17.4
2019-02-26T10:15:18.686Z,17.3
2019-02-26T10:16:16.184Z,17.3
2019-02-26T10:17:04.736Z,17.1
2019-02-26T10:17:52.958Z,17.1
2019-02-26T10:19:38.171Z,17.3
2019-02-26T10:20:34.661Z,18.1
2019-02-26T10:22:17.721Z,19.1
2019-02-26T10:23:00.611Z,19.6
2019-02-26T10:23:40.972Z,19.5
2019-02-26T10:24:46.818Z,19.3
2019-02-26T10:25:40.953Z,18.9
2019-02-26T10:26:18.762Z,18.8
2019-02-26T10:27:20.538Z,18.6
2019-02-26T10:27:55.626Z,18.4
2019-02-26T10:29:13.499Z,18.3
2019-02-26T10:29:39.262Z,18.1
2019-02-26T10:30:24.994Z,18.1
2019-02-26T10:31:18.086Z,17.9
2019-02-26T10:32:04.470Z,17.9
2019-02-26T10:32:55.688Z,17.8
2019-02-26T10:33:57.205Z,17.8
2019-02-26T10:34:38.383Z,17.6
2019-02-26T10:35:54.933Z,17.6
2019-02-26T10:36:24.483Z,17.4
2019-02-26T10:37:01.813Z,17.3
2019-02-26T10:37:52.608Z,17.3
2019-02-26T10:38:46.987Z,17.2
2019-02-26T10:39:38.467Z,17.1
2019-02-26T10:41:05.574Z,17.1
2019-02-26T10:41:15.893Z,17.8
2019-02-26T10:42:12.128Z,18
2019-02-26T10:42:55.460Z,18.6
2019-02-26T10:43:49.060Z,19
2019-02-26T10:44:37.078Z,19.4
2019-02-26T10:45:25.217Z,19.7
2019-02-26T10:46:16.102Z,19.4
2019-02-26T10:47:17.350Z,19.1
2019-02-26T10:48:08.735Z,18.9
2019-02-26T10:48:57.986Z,18.6
2019-02-26T10:49:37.553Z,18.5
2019-02-26T10:50:55.057Z,18.4
2019-02-26T10:51:28.317Z,18.1
2019-02-26T10:52:07.354Z,18.1
2019-02-26T10:53:26.762Z,18
2019-02-26T10:53:47.351Z,17.9
2019-02-26T10:54:53.632Z,17.8
2019-02-26T10:55:49.231Z,17.8
2019-02-26T10:56:16.774Z,17.6
2019-02-26T10:57:22.330Z,17.6
2019-02-26T10:58:17.496Z,17.5
2019-02-26T10:58:46.776Z,17.4
2019-02-26T10:59:37.456Z,17.4
2019-02-26T11:00:43.598Z,17.3
2019-02-26T11:01:35.407Z,17.1
2019-02-26T11:02:11.450Z,17.1
2019-02-26T11:03:03.252Z,17.3
2019-02-26T11:04:04.864Z,18
2019-02-26T11:05:02.381Z,18.6
2019-02-26T11:05:37.184Z,19.2
2019-02-26T11:06:27.546Z,19.6
2019-02-26T11:07:22.169Z,19.7
2019-02-26T11:08:15.354Z,19.5
2019-02-26T11:09:03.344Z,19.2
2019-02-26T11:09:40.810Z,19
2019-02-26T11:10:34.032Z,18.8
2019-02-26T11:11:27.091Z,18.6
2019-02-26T11:12:17.029Z,18.4
2019-02-26T11:13:08.010Z,18.4
2019-02-26T11:14:01.286Z,18.3
2019-02-26T11:14:51.610Z,18.1
2019-02-26T11:15:43.277Z,18.1
2019-02-26T11:16:43.472Z,18
2019-02-26T11:17:08.580Z,17.9
2019-02-26T11:18:04.357Z,17.8
2019-02-26T11:18:55.471Z,17.7
2019-02-26T11:19:49.616Z,17.6
2019-02-26T11:20:41.679Z,17.5
2019-02-26T11:21:18.681Z,17.4
2019-02-26T11:22:11.178Z,17.4
2019-02-26T11:23:00.735Z,17.3
2019-02-26T11:23:54.760Z,17.2
2019-02-26T11:24:44.158Z,17.1
2019-02-26T11:25:37.442Z,17.3
2019-02-26T11:26:25.950Z,18.1
2019-02-26T11:27:09.602Z,18.6